sensor_id;sensor_type;location;lat;lon;timestamp;temperature;humidity
11963;DHT22;62678;52.130;5.584;2023-08-06T00:00:39;16.40;99.90
11963;DHT22;62678;52.130;5.584;2023-08-06T00:03:06;16.50;99.90
11963;DHT22;62678;52.130;5.584;2023-08-06T00:05:33;16.50;99.90
11963;DHT22;62678;52.130;5.584;2023-08-06T00:08:00;16.50;99.90
11963;DHT22;62678;52.130;5.584;2023-08-06T00:10:29;16.50;99.90
11963;DHT22;62678;52.130;5.584;2023-08-06T00:12:56;16.50;99.90
11963;DHT22;62678;52.130;5.584;2023-08-06T00:15:23;16.40;99.90
11963;DHT22;62678;52.130;5.584;2023-08-06T00:17:50;16.50;99.90
11963;DHT22;62678;52.130;5.584;2023-08-06T00:20:17;16.50;99.90
11963;DHT22;62678;52.130;5.584;2023-08-06T00:22:44;16.40;99.90
11963;DHT22;62678;52.130;5.584;2023-08-06T00:25:11;16.50;99.90
11963;DHT22;62678;52.130;5.584;2023-08-06T00:27:39;16.50;99.90
11963;DHT22;62678;52.130;5.584;2023-08-06T00:30:07;16.50;99.90
11963;DHT22;62678;52.130;5.584;2023-08-06T00:32:34;16.40;99.90
11963;DHT22;62678;52.130;5.584;2023-08-06T00:35:01;16.40;99.90
11963;DHT22;62678;52.130;5.584;2023-08-06T00:37:29;16.30;99.90
11963;DHT22;62678;52.130;5.584;2023-08-06T00:39:57;16.30;99.90
11963;DHT22;62678;52.130;5.584;2023-08-06T00:42:24;16.20;99.90
11963;DHT22;62678;52.130;5.584;2023-08-06T00:44:52;16.20;99.90
11963;DHT22;62678;52.130;5.584;2023-08-06T00:47:19;16.20;99.90
11963;DHT22;62678;52.130;5.584;2023-08-06T00:49:47;16.30;99.90
11963;DHT22;62678;52.130;5.584;2023-08-06T00:52:14;16.30;99.90
11963;DHT22;62678;52.130;5.584;2023-08-06T00:54:41;16.30;99.90
11963;DHT22;62678;52.130;5.584;2023-08-06T00:57:09;16.40;99.90
11963;DHT22;62678;52.130;5.584;2023-08-06T00:59:36;16.40;99.90
11963;DHT22;62678;52.130;5.584;2023-08-06T01:02:07;16.50;99.90
11963;DHT22;62678;52.130;5.584;2023-08-06T01:04:34;16.50;99.90
11963;DHT22;62678;52.130;5.584;2023-08-06T01:07:07;16.50;99.90
11963;DHT22;62678;52.130;5.584;2023-08-06T01:09:45;16.50;99.90
11963;DHT22;62678;52.130;5.584;2023-08-06T01:12:24;16.50;99.90
11963;DHT22;62678;52.130;5.584;2023-08-06T01:14:57;16.50;99.90
11963;DHT22;62678;52.130;5.584;2023-08-06T01:17:29;16.50;99.90
11963;DHT22;62678;52.130;5.584;2023-08-06T01:19:57;16.50;99.90
11963;DHT22;62678;52.130;5.584;2023-08-06T01:22:25;16.50;99.90
11963;DHT22;62678;52.130;5.584;2023-08-06T01:24:52;16.50;99.90
11963;DHT22;62678;52.130;5.584;2023-08-06T01:27:25;16.50;99.90
11963;DHT22;62678;52.130;5.584;2023-08-06T01:29:58;16.40;99.90
11963;DHT22;62678;52.130;5.584;2023-08-06T01:32:29;16.40;99.90
11963;DHT22;62678;52.130;5.584;2023-08-06T01:34:59;16.40;99.90
11963;DHT22;62678;52.130;5.584;2023-08-06T01:37:28;16.40;99.90
11963;DHT22;62678;52.130;5.584;2023-08-06T01:39:56;16.40;99.90
11963;DHT22;62678;52.130;5.584;2023-08-06T01:42:23;16.40;99.90
11963;DHT22;62678;52.130;5.584;2023-08-06T01:44:51;16.40;99.90
11963;DHT22;62678;52.130;5.584;2023-08-06T01:47:18;16.40;99.90
11963;DHT22;62678;52.130;5.584;2023-08-06T01:49:45;16.40;99.90
11963;DHT22;62678;52.130;5.584;2023-08-06T01:52:12;16.40;99.90
11963;DHT22;62678;52.130;5.584;2023-08-06T01:54:41;16.40;99.90
11963;DHT22;62678;52.130;5.584;2023-08-06T01:57:08;16.50;99.90
11963;DHT22;62678;52.130;5.584;2023-08-06T01:59:35;16.40;99.90
11963;DHT22;62678;52.130;5.584;2023-08-06T02:02:01;16.40;99.90
11963;DHT22;62678;52.130;5.584;2023-08-06T02:04:29;16.40;99.90
11963;DHT22;62678;52.130;5.584;2023-08-06T02:06:56;16.40;99.90
11963;DHT22;62678;52.130;5.584;2023-08-06T02:09:23;16.30;99.90
11963;DHT22;62678;52.130;5.584;2023-08-06T02:11:51;16.30;99.90
11963;DHT22;62678;52.130;5.584;2023-08-06T02:14:18;16.30;99.90
11963;DHT22;62678;52.130;5.584;2023-08-06T02:16:45;16.30;99.90
11963;DHT22;62678;52.130;5.584;2023-08-06T02:19:12;16.30;99.90
11963;DHT22;62678;52.130;5.584;2023-08-06T02:21:39;16.30;99.90
11963;DHT22;62678;52.130;5.584;2023-08-06T02:24:05;16.30;99.90
11963;DHT22;62678;52.130;5.584;2023-08-06T02:26:32;16.30;99.90
11963;DHT22;62678;52.130;5.584;2023-08-06T02:29:01;16.20;99.90
11963;DHT22;62678;52.130;5.584;2023-08-06T02:31:28;16.20;99.90
11963;DHT22;62678;52.130;5.584;2023-08-06T02:33:55;16.20;99.90
11963;DHT22;62678;52.130;5.584;2023-08-06T02:36:22;16.30;99.90
11963;DHT22;62678;52.130;5.584;2023-08-06T02:38:50;16.30;99.90
11963;DHT22;62678;52.130;5.584;2023-08-06T02:41:17;16.30;99.90
11963;DHT22;62678;52.130;5.584;2023-08-06T02:43:44;16.30;99.90
11963;DHT22;62678;52.130;5.584;2023-08-06T02:46:13;16.30;99.90
11963;DHT22;62678;52.130;5.584;2023-08-06T02:48:39;16.30;99.90
11963;DHT22;62678;52.130;5.584;2023-08-06T02:51:06;16.30;99.90
11963;DHT22;62678;52.130;5.584;2023-08-06T02:53:33;16.30;99.90
11963;DHT22;62678;52.130;5.584;2023-08-06T02:56:00;16.30;99.90
11963;DHT22;62678;52.130;5.584;2023-08-06T02:58:28;16.30;99.90
11963;DHT22;62678;52.130;5.584;2023-08-06T03:01:01;16.30;99.90
11963;DHT22;62678;52.130;5.584;2023-08-06T03:03:31;16.30;99.90
11963;DHT22;62678;52.130;5.584;2023-08-06T03:05:58;16.30;99.90
11963;DHT22;62678;52.130;5.584;2023-08-06T03:08:25;16.30;99.90
11963;DHT22;62678;52.130;5.584;2023-08-06T03:10:52;16.20;99.90
11963;DHT22;62678;52.130;5.584;2023-08-06T03:13:19;16.20;99.90
11963;DHT22;62678;52.130;5.584;2023-08-06T03:15:57;16.20;99.90
11963;DHT22;62678;52.130;5.584;2023-08-06T03:18:24;16.30;99.90
11963;DHT22;62678;52.130;5.584;2023-08-06T03:20:53;16.30;99.90
11963;DHT22;62678;52.130;5.584;2023-08-06T03:23:20;16.30;99.90
11963;DHT22;62678;52.130;5.584;2023-08-06T03:25:47;16.30;99.90
11963;DHT22;62678;52.130;5.584;2023-08-06T03:28:14;16.20;99.90
11963;DHT22;62678;52.130;5.584;2023-08-06T03:30:41;16.20;99.90
11963;DHT22;62678;52.130;5.584;2023-08-06T03:33:08;16.20;99.90
11963;DHT22;62678;52.130;5.584;2023-08-06T03:35:35;16.20;99.90
11963;DHT22;62678;52.130;5.584;2023-08-06T03:38:03;16.20;99.90
11963;DHT22;62678;52.130;5.584;2023-08-06T03:40:30;16.20;99.90
11963;DHT22;62678;52.130;5.584;2023-08-06T03:42:57;16.20;99.90
11963;DHT22;62678;52.130;5.584;2023-08-06T03:45:24;16.20;99.90
11963;DHT22;62678;52.130;5.584;2023-08-06T03:47:51;16.20;99.90
11963;DHT22;62678;52.130;5.584;2023-08-06T03:50:19;16.20;99.90
11963;DHT22;62678;52.130;5.584;2023-08-06T03:52:46;16.20;99.90
11963;DHT22;62678;52.130;5.584;2023-08-06T03:55:14;16.20;99.90
11963;DHT22;62678;52.130;5.584;2023-08-06T03:57:41;16.20;99.90
11963;DHT22;62678;52.130;5.584;2023-08-06T04:00:09;16.30;99.90
11963;DHT22;62678;52.130;5.584;2023-08-06T04:02:36;16.20;99.90
11963;DHT22;62678;52.130;5.584;2023-08-06T04:05:04;16.20;99.90
11963;DHT22;62678;52.130;5.584;2023-08-06T04:07:31;16.20;99.90
11963;DHT22;62678;52.130;5.584;2023-08-06T04:09:59;16.20;99.90
11963;DHT22;62678;52.130;5.584;2023-08-06T04:12:28;16.30;99.90
11963;DHT22;62678;52.130;5.584;2023-08-06T04:14:57;16.30;99.90
11963;DHT22;62678;52.130;5.584;2023-08-06T04:17:24;16.30;99.90
11963;DHT22;62678;52.130;5.584;2023-08-06T04:19:52;16.30;99.90
11963;DHT22;62678;52.130;5.584;2023-08-06T04:22:20;16.30;99.90
11963;DHT22;62678;52.130;5.584;2023-08-06T04:24:48;16.40;99.90
11963;DHT22;62678;52.130;5.584;2023-08-06T04:27:16;16.40;99.90
11963;DHT22;62678;52.130;5.584;2023-08-06T04:29:44;16.40;99.90
11963;DHT22;62678;52.130;5.584;2023-08-06T04:32:12;16.40;99.90
11963;DHT22;62678;52.130;5.584;2023-08-06T04:34:39;16.40;99.90
11963;DHT22;62678;52.130;5.584;2023-08-06T04:37:06;16.40;99.90
11963;DHT22;62678;52.130;5.584;2023-08-06T04:39:33;16.40;99.90
11963;DHT22;62678;52.130;5.584;2023-08-06T04:42:00;16.50;99.90
11963;DHT22;62678;52.130;5.584;2023-08-06T04:44:27;16.50;99.90
11963;DHT22;62678;52.130;5.584;2023-08-06T04:46:56;16.50;99.90
11963;DHT22;62678;52.130;5.584;2023-08-06T04:49:23;16.50;99.90
11963;DHT22;62678;52.130;5.584;2023-08-06T04:51:50;16.50;99.90
11963;DHT22;62678;52.130;5.584;2023-08-06T04:54:17;16.50;99.90
11963;DHT22;62678;52.130;5.584;2023-08-06T04:56:44;16.50;99.90
11963;DHT22;62678;52.130;5.584;2023-08-06T04:59:11;16.60;99.90
11963;DHT22;62678;52.130;5.584;2023-08-06T05:01:38;16.60;99.90
11963;DHT22;62678;52.130;5.584;2023-08-06T05:04:06;16.70;99.90
11963;DHT22;62678;52.130;5.584;2023-08-06T05:06:33;16.70;99.90
11963;DHT22;62678;52.130;5.584;2023-08-06T05:09:00;16.60;99.90
11963;DHT22;62678;52.130;5.584;2023-08-06T05:11:28;16.70;99.90
11963;DHT22;62678;52.130;5.584;2023-08-06T05:13:55;16.60;99.90
11963;DHT22;62678;52.130;5.584;2023-08-06T05:16:22;16.70;99.90
11963;DHT22;62678;52.130;5.584;2023-08-06T05:18:49;16.70;99.90
11963;DHT22;62678;52.130;5.584;2023-08-06T05:21:17;16.70;99.90
11963;DHT22;62678;52.130;5.584;2023-08-06T05:23:44;16.70;99.90
11963;DHT22;62678;52.130;5.584;2023-08-06T05:26:11;16.70;99.90
11963;DHT22;62678;52.130;5.584;2023-08-06T05:28:40;16.70;99.90
11963;DHT22;62678;52.130;5.584;2023-08-06T05:31:07;16.70;99.90
11963;DHT22;62678;52.130;5.584;2023-08-06T05:33:34;16.90;99.90
11963;DHT22;62678;52.130;5.584;2023-08-06T05:36:02;16.80;99.90
11963;DHT22;62678;52.130;5.584;2023-08-06T05:38:30;16.80;99.90
11963;DHT22;62678;52.130;5.584;2023-08-06T05:40:57;16.90;99.90
11963;DHT22;62678;52.130;5.584;2023-08-06T05:43:24;16.90;99.90
11963;DHT22;62678;52.130;5.584;2023-08-06T05:45:51;17.00;99.90
11963;DHT22;62678;52.130;5.584;2023-08-06T05:48:18;17.00;99.90
11963;DHT22;62678;52.130;5.584;2023-08-06T05:50:45;16.90;99.90
11963;DHT22;62678;52.130;5.584;2023-08-06T05:53:12;16.80;99.90
11963;DHT22;62678;52.130;5.584;2023-08-06T05:55:40;16.90;99.90
11963;DHT22;62678;52.130;5.584;2023-08-06T05:58:08;16.90;99.90
11963;DHT22;62678;52.130;5.584;2023-08-06T06:00:35;16.80;99.90
11963;DHT22;62678;52.130;5.584;2023-08-06T06:03:02;16.80;99.90
11963;DHT22;62678;52.130;5.584;2023-08-06T06:05:29;16.80;99.90
11963;DHT22;62678;52.130;5.584;2023-08-06T06:07:56;16.90;99.90
11963;DHT22;62678;52.130;5.584;2023-08-06T06:10:23;16.70;99.90
11963;DHT22;62678;52.130;5.584;2023-08-06T06:12:52;16.90;99.90
11963;DHT22;62678;52.130;5.584;2023-08-06T06:15:19;16.90;99.90
11963;DHT22;62678;52.130;5.584;2023-08-06T06:17:46;16.90;99.90
11963;DHT22;62678;52.130;5.584;2023-08-06T06:20:13;17.00;99.90
11963;DHT22;62678;52.130;5.584;2023-08-06T06:22:40;17.00;99.90
11963;DHT22;62678;52.130;5.584;2023-08-06T06:25:08;16.90;99.90
11963;DHT22;62678;52.130;5.584;2023-08-06T06:27:37;16.90;99.90
11963;DHT22;62678;52.130;5.584;2023-08-06T06:30:07;16.80;99.90
11963;DHT22;62678;52.130;5.584;2023-08-06T06:32:35;16.90;99.90
11963;DHT22;62678;52.130;5.584;2023-08-06T06:35:02;16.90;99.90
11963;DHT22;62678;52.130;5.584;2023-08-06T06:37:29;16.90;99.90
11963;DHT22;62678;52.130;5.584;2023-08-06T06:39:57;16.90;99.90
11963;DHT22;62678;52.130;5.584;2023-08-06T06:42:24;17.00;99.90
11963;DHT22;62678;52.130;5.584;2023-08-06T06:44:51;16.90;99.90
11963;DHT22;62678;52.130;5.584;2023-08-06T06:47:20;17.00;99.90
11963;DHT22;62678;52.130;5.584;2023-08-06T06:49:47;17.00;99.90
11963;DHT22;62678;52.130;5.584;2023-08-06T06:52:14;17.00;99.90
11963;DHT22;62678;52.130;5.584;2023-08-06T06:54:42;16.90;99.90
11963;DHT22;62678;52.130;5.584;2023-08-06T06:57:09;16.90;99.90
11963;DHT22;62678;52.130;5.584;2023-08-06T06:59:36;17.00;99.90
11963;DHT22;62678;52.130;5.584;2023-08-06T07:02:04;17.00;99.90
11963;DHT22;62678;52.130;5.584;2023-08-06T07:04:34;17.00;99.90
11963;DHT22;62678;52.130;5.584;2023-08-06T07:07:01;17.10;99.90
11963;DHT22;62678;52.130;5.584;2023-08-06T07:09:28;17.10;99.90
11963;DHT22;62678;52.130;5.584;2023-08-06T07:11:56;17.10;99.90
11963;DHT22;62678;52.130;5.584;2023-08-06T07:14:24;17.00;99.90
11963;DHT22;62678;52.130;5.584;2023-08-06T07:16:51;17.00;99.90
11963;DHT22;62678;52.130;5.584;2023-08-06T07:19:18;17.00;99.90
11963;DHT22;62678;52.130;5.584;2023-08-06T07:21:46;17.00;99.90
11963;DHT22;62678;52.130;5.584;2023-08-06T07:24:13;16.90;99.90
11963;DHT22;62678;52.130;5.584;2023-08-06T07:26:40;17.10;99.90
11963;DHT22;62678;52.130;5.584;2023-08-06T07:29:07;17.30;99.90
11963;DHT22;62678;52.130;5.584;2023-08-06T07:31:34;17.30;99.90
11963;DHT22;62678;52.130;5.584;2023-08-06T07:34:01;17.30;99.90
11963;DHT22;62678;52.130;5.584;2023-08-06T07:36:29;17.30;99.90
11963;DHT22;62678;52.130;5.584;2023-08-06T07:38:57;17.30;99.90
11963;DHT22;62678;52.130;5.584;2023-08-06T07:41:25;17.40;99.90
11963;DHT22;62678;52.130;5.584;2023-08-06T07:43:53;17.30;99.90
11963;DHT22;62678;52.130;5.584;2023-08-06T07:46:20;17.30;99.90
11963;DHT22;62678;52.130;5.584;2023-08-06T07:48:48;17.30;99.90
11963;DHT22;62678;52.130;5.584;2023-08-06T07:51:16;17.30;99.90
11963;DHT22;62678;52.130;5.584;2023-08-06T07:53:44;17.30;99.90
11963;DHT22;62678;52.130;5.584;2023-08-06T07:56:14;17.30;99.90
11963;DHT22;62678;52.130;5.584;2023-08-06T07:58:42;17.50;99.90
11963;DHT22;62678;52.130;5.584;2023-08-06T08:01:09;17.60;99.90
11963;DHT22;62678;52.130;5.584;2023-08-06T08:03:38;17.70;99.90
11963;DHT22;62678;52.130;5.584;2023-08-06T08:06:05;17.80;99.90
11963;DHT22;62678;52.130;5.584;2023-08-06T08:08:32;17.70;99.90
11963;DHT22;62678;52.130;5.584;2023-08-06T08:11:03;17.60;99.90
11963;DHT22;62678;52.130;5.584;2023-08-06T08:13:31;17.50;99.90
11963;DHT22;62678;52.130;5.584;2023-08-06T08:15:59;17.50;99.90
11963;DHT22;62678;52.130;5.584;2023-08-06T08:18:27;17.60;99.90
11963;DHT22;62678;52.130;5.584;2023-08-06T08:20:54;17.80;99.90
11963;DHT22;62678;52.130;5.584;2023-08-06T08:23:21;17.80;99.90
11963;DHT22;62678;52.130;5.584;2023-08-06T08:25:48;17.90;99.90
11963;DHT22;62678;52.130;5.584;2023-08-06T08:28:15;18.10;99.90
11963;DHT22;62678;52.130;5.584;2023-08-06T08:30:43;18.20;99.90
11963;DHT22;62678;52.130;5.584;2023-08-06T08:33:10;18.40;99.90
11963;DHT22;62678;52.130;5.584;2023-08-06T08:35:37;18.40;99.90
11963;DHT22;62678;52.130;5.584;2023-08-06T08:38:05;18.10;99.90
11963;DHT22;62678;52.130;5.584;2023-08-06T08:40:33;18.00;99.90
11963;DHT22;62678;52.130;5.584;2023-08-06T08:43:02;18.00;99.90
11963;DHT22;62678;52.130;5.584;2023-08-06T08:45:29;17.80;99.90
11963;DHT22;62678;52.130;5.584;2023-08-06T08:47:59;17.80;99.90
11963;DHT22;62678;52.130;5.584;2023-08-06T08:50:26;18.00;99.90
11963;DHT22;62678;52.130;5.584;2023-08-06T08:52:53;18.10;99.90
11963;DHT22;62678;52.130;5.584;2023-08-06T08:55:22;18.20;99.90
11963;DHT22;62678;52.130;5.584;2023-08-06T08:57:49;18.40;99.90
11963;DHT22;62678;52.130;5.584;2023-08-06T09:00:16;18.50;99.90
11963;DHT22;62678;52.130;5.584;2023-08-06T09:02:44;18.50;99.90
11963;DHT22;62678;52.130;5.584;2023-08-06T09:05:15;18.70;99.90
11963;DHT22;62678;52.130;5.584;2023-08-06T09:07:47;18.70;99.90
11963;DHT22;62678;52.130;5.584;2023-08-06T09:10:16;18.80;99.90
11963;DHT22;62678;52.130;5.584;2023-08-06T09:12:45;18.80;99.90
11963;DHT22;62678;52.130;5.584;2023-08-06T09:15:13;18.80;99.90
11963;DHT22;62678;52.130;5.584;2023-08-06T09:17:40;18.80;99.90
11963;DHT22;62678;52.130;5.584;2023-08-06T09:20:11;18.70;99.90
11963;DHT22;62678;52.130;5.584;2023-08-06T09:22:40;18.80;99.90
11963;DHT22;62678;52.130;5.584;2023-08-06T09:25:08;18.40;99.90
11963;DHT22;62678;52.130;5.584;2023-08-06T09:27:36;18.20;99.90
11963;DHT22;62678;52.130;5.584;2023-08-06T09:30:04;17.60;99.90
11963;DHT22;62678;52.130;5.584;2023-08-06T09:32:45;17.00;99.90
11963;DHT22;62678;52.130;5.584;2023-08-06T09:35:15;16.50;99.90
11963;DHT22;62678;52.130;5.584;2023-08-06T09:37:45;16.30;99.90
11963;DHT22;62678;52.130;5.584;2023-08-06T09:40:25;16.20;99.90
11963;DHT22;62678;52.130;5.584;2023-08-06T09:42:53;16.00;99.90
11963;DHT22;62678;52.130;5.584;2023-08-06T09:45:20;16.10;99.90
11963;DHT22;62678;52.130;5.584;2023-08-06T09:47:48;16.00;99.90
11963;DHT22;62678;52.130;5.584;2023-08-06T09:50:17;15.90;99.90
11963;DHT22;62678;52.130;5.584;2023-08-06T09:52:46;15.90;99.90
11963;DHT22;62678;52.130;5.584;2023-08-06T09:55:14;15.70;99.90
11963;DHT22;62678;52.130;5.584;2023-08-06T09:57:42;15.60;99.90
11963;DHT22;62678;52.130;5.584;2023-08-06T10:00:10;15.60;99.90
11963;DHT22;62678;52.130;5.584;2023-08-06T10:02:39;15.50;99.90
11963;DHT22;62678;52.130;5.584;2023-08-06T10:05:08;15.50;99.90
11963;DHT22;62678;52.130;5.584;2023-08-06T10:07:35;15.50;99.90
11963;DHT22;62678;52.130;5.584;2023-08-06T10:10:07;15.50;99.90
11963;DHT22;62678;52.130;5.584;2023-08-06T10:12:36;15.60;99.90
11963;DHT22;62678;52.130;5.584;2023-08-06T10:15:08;15.50;99.90
11963;DHT22;62678;52.130;5.584;2023-08-06T10:17:37;15.60;99.90
11963;DHT22;62678;52.130;5.584;2023-08-06T10:20:06;15.60;99.90
11963;DHT22;62678;52.130;5.584;2023-08-06T10:22:34;15.60;99.90
11963;DHT22;62678;52.130;5.584;2023-08-06T10:25:04;15.60;99.90
11963;DHT22;62678;52.130;5.584;2023-08-06T10:27:33;15.50;99.90
11963;DHT22;62678;52.130;5.584;2023-08-06T10:30:24;15.60;99.90
11963;DHT22;62678;52.130;5.584;2023-08-06T10:32:55;15.50;99.90
11963;DHT22;62678;52.130;5.584;2023-08-06T10:35:36;15.50;99.90
11963;DHT22;62678;52.130;5.584;2023-08-06T10:38:05;15.50;99.90
11963;DHT22;62678;52.130;5.584;2023-08-06T10:40:32;15.50;99.90
11963;DHT22;62678;52.130;5.584;2023-08-06T10:43:02;15.50;99.90
11963;DHT22;62678;52.130;5.584;2023-08-06T10:45:29;15.60;99.90
11963;DHT22;62678;52.130;5.584;2023-08-06T10:47:57;15.70;99.90
11963;DHT22;62678;52.130;5.584;2023-08-06T10:50:24;15.70;99.90
11963;DHT22;62678;52.130;5.584;2023-08-06T10:52:52;15.70;99.90
11963;DHT22;62678;52.130;5.584;2023-08-06T10:55:23;15.80;99.90
11963;DHT22;62678;52.130;5.584;2023-08-06T10:57:50;15.80;99.90
11963;DHT22;62678;52.130;5.584;2023-08-06T11:00:21;15.80;99.90
11963;DHT22;62678;52.130;5.584;2023-08-06T11:02:48;15.90;99.90
11963;DHT22;62678;52.130;5.584;2023-08-06T11:05:16;15.90;99.90
11963;DHT22;62678;52.130;5.584;2023-08-06T11:07:43;15.80;99.90
11963;DHT22;62678;52.130;5.584;2023-08-06T11:10:12;15.90;99.90
11963;DHT22;62678;52.130;5.584;2023-08-06T11:12:39;15.90;99.90
11963;DHT22;62678;52.130;5.584;2023-08-06T11:15:08;15.80;99.90
11963;DHT22;62678;52.130;5.584;2023-08-06T11:17:40;15.70;99.90
11963;DHT22;62678;52.130;5.584;2023-08-06T11:20:08;15.60;99.90
11963;DHT22;62678;52.130;5.584;2023-08-06T11:22:36;15.50;99.90
11963;DHT22;62678;52.130;5.584;2023-08-06T11:25:05;15.40;99.90
11963;DHT22;62678;52.130;5.584;2023-08-06T11:27:33;15.40;99.90
11963;DHT22;62678;52.130;5.584;2023-08-06T11:30:00;15.30;99.90
11963;DHT22;62678;52.130;5.584;2023-08-06T11:32:27;15.30;99.90
11963;DHT22;62678;52.130;5.584;2023-08-06T11:34:56;15.30;99.90
11963;DHT22;62678;52.130;5.584;2023-08-06T11:37:23;15.30;99.90
11963;DHT22;62678;52.130;5.584;2023-08-06T11:39:51;15.30;99.90
11963;DHT22;62678;52.130;5.584;2023-08-06T11:42:19;15.40;99.90
11963;DHT22;62678;52.130;5.584;2023-08-06T11:44:46;15.50;99.90
11963;DHT22;62678;52.130;5.584;2023-08-06T11:47:15;15.60;99.90
11963;DHT22;62678;52.130;5.584;2023-08-06T11:49:45;15.70;99.90
11963;DHT22;62678;52.130;5.584;2023-08-06T11:52:18;15.80;99.90
11963;DHT22;62678;52.130;5.584;2023-08-06T11:55:00;15.90;99.90
11963;DHT22;62678;52.130;5.584;2023-08-06T11:57:29;15.90;99.90
11963;DHT22;62678;52.130;5.584;2023-08-06T12:00:01;15.80;99.90
11963;DHT22;62678;52.130;5.584;2023-08-06T12:02:31;15.80;99.90
11963;DHT22;62678;52.130;5.584;2023-08-06T12:05:05;15.80;99.90
11963;DHT22;62678;52.130;5.584;2023-08-06T12:07:40;15.90;99.90
11963;DHT22;62678;52.130;5.584;2023-08-06T12:10:08;15.90;99.90
11963;DHT22;62678;52.130;5.584;2023-08-06T12:12:36;15.90;99.90
11963;DHT22;62678;52.130;5.584;2023-08-06T12:15:05;15.90;99.90
11963;DHT22;62678;52.130;5.584;2023-08-06T12:17:33;15.90;99.90
11963;DHT22;62678;52.130;5.584;2023-08-06T12:20:00;15.80;99.90
11963;DHT22;62678;52.130;5.584;2023-08-06T12:22:28;15.80;99.90
11963;DHT22;62678;52.130;5.584;2023-08-06T12:24:59;15.80;99.90
11963;DHT22;62678;52.130;5.584;2023-08-06T12:27:26;15.80;99.90
11963;DHT22;62678;52.130;5.584;2023-08-06T12:29:53;15.90;99.90
11963;DHT22;62678;52.130;5.584;2023-08-06T12:32:20;15.80;99.90
11963;DHT22;62678;52.130;5.584;2023-08-06T12:34:48;15.90;99.90
11963;DHT22;62678;52.130;5.584;2023-08-06T12:37:15;16.00;99.90
11963;DHT22;62678;52.130;5.584;2023-08-06T12:39:42;16.10;99.90
11963;DHT22;62678;52.130;5.584;2023-08-06T12:42:11;16.10;99.90
11963;DHT22;62678;52.130;5.584;2023-08-06T12:44:38;16.20;99.90
11963;DHT22;62678;52.130;5.584;2023-08-06T12:47:06;16.20;99.90
11963;DHT22;62678;52.130;5.584;2023-08-06T12:49:33;16.30;99.90
11963;DHT22;62678;52.130;5.584;2023-08-06T12:52:01;16.30;99.90
11963;DHT22;62678;52.130;5.584;2023-08-06T12:54:30;16.20;99.90
11963;DHT22;62678;52.130;5.584;2023-08-06T12:57:02;16.20;99.90
11963;DHT22;62678;52.130;5.584;2023-08-06T12:59:32;16.10;99.90
11963;DHT22;62678;52.130;5.584;2023-08-06T13:01:59;16.20;99.90
11963;DHT22;62678;52.130;5.584;2023-08-06T13:04:27;16.20;99.90
11963;DHT22;62678;52.130;5.584;2023-08-06T13:06:54;16.20;99.90
11963;DHT22;62678;52.130;5.584;2023-08-06T13:09:21;16.20;99.90
11963;DHT22;62678;52.130;5.584;2023-08-06T13:11:48;16.20;99.90
11963;DHT22;62678;52.130;5.584;2023-08-06T13:14:16;16.20;99.90
11963;DHT22;62678;52.130;5.584;2023-08-06T13:16:45;16.30;99.90
11963;DHT22;62678;52.130;5.584;2023-08-06T13:19:13;16.20;99.90
11963;DHT22;62678;52.130;5.584;2023-08-06T13:21:59;16.10;99.90
11963;DHT22;62678;52.130;5.584;2023-08-06T13:24:28;16.00;99.90
11963;DHT22;62678;52.130;5.584;2023-08-06T13:26:55;16.10;99.90
11963;DHT22;62678;52.130;5.584;2023-08-06T13:29:22;16.00;99.90
11963;DHT22;62678;52.130;5.584;2023-08-06T13:31:51;16.00;99.90
11963;DHT22;62678;52.130;5.584;2023-08-06T13:34:18;16.10;99.90
11963;DHT22;62678;52.130;5.584;2023-08-06T13:36:45;16.20;99.90
11963;DHT22;62678;52.130;5.584;2023-08-06T13:39:13;16.30;99.90
11963;DHT22;62678;52.130;5.584;2023-08-06T13:41:42;16.50;99.90
11963;DHT22;62678;52.130;5.584;2023-08-06T13:44:09;16.50;99.90
11963;DHT22;62678;52.130;5.584;2023-08-06T13:46:36;16.60;99.90
11963;DHT22;62678;52.130;5.584;2023-08-06T13:49:05;16.70;99.90
11963;DHT22;62678;52.130;5.584;2023-08-06T13:51:32;16.70;99.90
11963;DHT22;62678;52.130;5.584;2023-08-06T13:54:01;16.70;99.90
11963;DHT22;62678;52.130;5.584;2023-08-06T13:56:28;16.80;99.90
11963;DHT22;62678;52.130;5.584;2023-08-06T13:58:56;16.70;99.90
11963;DHT22;62678;52.130;5.584;2023-08-06T14:01:24;16.70;99.90
11963;DHT22;62678;52.130;5.584;2023-08-06T14:03:51;16.80;99.90
11963;DHT22;62678;52.130;5.584;2023-08-06T14:06:20;16.80;99.90
11963;DHT22;62678;52.130;5.584;2023-08-06T14:08:48;16.80;99.90
11963;DHT22;62678;52.130;5.584;2023-08-06T14:11:15;16.90;99.90
11963;DHT22;62678;52.130;5.584;2023-08-06T14:13:42;17.00;99.90
11963;DHT22;62678;52.130;5.584;2023-08-06T14:16:09;17.00;99.90
11963;DHT22;62678;52.130;5.584;2023-08-06T14:18:36;16.90;99.90
11963;DHT22;62678;52.130;5.584;2023-08-06T14:21:04;16.80;99.90
11963;DHT22;62678;52.130;5.584;2023-08-06T14:23:33;16.70;99.90
11963;DHT22;62678;52.130;5.584;2023-08-06T14:26:00;16.90;99.90
11963;DHT22;62678;52.130;5.584;2023-08-06T14:28:28;17.00;99.90
11963;DHT22;62678;52.130;5.584;2023-08-06T14:30:55;17.10;99.90
11963;DHT22;62678;52.130;5.584;2023-08-06T14:33:22;16.90;99.90
11963;DHT22;62678;52.130;5.584;2023-08-06T14:35:50;16.80;99.90
11963;DHT22;62678;52.130;5.584;2023-08-06T14:38:17;16.90;99.90
11963;DHT22;62678;52.130;5.584;2023-08-06T14:40:46;16.90;99.90
11963;DHT22;62678;52.130;5.584;2023-08-06T14:43:14;17.00;99.90
11963;DHT22;62678;52.130;5.584;2023-08-06T14:45:41;17.10;99.90
11963;DHT22;62678;52.130;5.584;2023-08-06T14:48:08;17.10;99.90
11963;DHT22;62678;52.130;5.584;2023-08-06T14:50:36;17.20;99.90
11963;DHT22;62678;52.130;5.584;2023-08-06T14:53:04;17.20;99.90
11963;DHT22;62678;52.130;5.584;2023-08-06T14:55:32;17.10;99.90
11963;DHT22;62678;52.130;5.584;2023-08-06T14:58:01;17.00;99.90
11963;DHT22;62678;52.130;5.584;2023-08-06T15:00:28;17.00;99.90
11963;DHT22;62678;52.130;5.584;2023-08-06T15:02:55;17.00;99.90
11963;DHT22;62678;52.130;5.584;2023-08-06T15:05:22;16.90;99.90
11963;DHT22;62678;52.130;5.584;2023-08-06T15:07:50;17.00;99.90
11963;DHT22;62678;52.130;5.584;2023-08-06T15:10:18;17.00;99.90
11963;DHT22;62678;52.130;5.584;2023-08-06T15:12:46;16.90;99.90
11963;DHT22;62678;52.130;5.584;2023-08-06T15:15:14;17.00;99.90
11963;DHT22;62678;52.130;5.584;2023-08-06T15:17:42;16.90;99.90
11963;DHT22;62678;52.130;5.584;2023-08-06T15:20:10;16.90;99.90
11963;DHT22;62678;52.130;5.584;2023-08-06T15:22:37;16.90;99.90
11963;DHT22;62678;52.130;5.584;2023-08-06T15:25:05;17.00;99.90
11963;DHT22;62678;52.130;5.584;2023-08-06T15:27:32;17.00;99.90
11963;DHT22;62678;52.130;5.584;2023-08-06T15:30:00;16.80;99.90
11963;DHT22;62678;52.130;5.584;2023-08-06T15:32:29;16.70;99.90
11963;DHT22;62678;52.130;5.584;2023-08-06T15:34:57;16.50;99.90